Time,TemperatureF,DewpointF,PressureIn,WindDirection,WindDirectionDegrees,WindSpeedMPH,WindSpeedGustMPH,Humidity,HourlyPrecipIn,Conditions,Clouds,dailyrainin,SoftwareType,DateUTC
2013-04-17 00:03:00,58.0,56.0,30.09,SSW,206,0.0,2.0,92,0.01,,,0.02,,2013-04-17 04:03:00,
2013-04-17 00:13:00,58.0,56.0,30.09,SSW,206,0.0,2.0,92,0.01,,,0.02,,2013-04-17 04:13:00,
2013-04-17 00:22:00,58.0,56.0,30.09,SSW,206,0.0,2.0,92,0.01,,,0.02,,2013-04-17 04:22:00,
2013-04-17 00:53:00,57.0,56.0,30.10,West,265,0.0,3.0,97,0.00,,,0.02,,2013-04-17 04:53:00,
2013-04-17 01:03:00,57.0,56.0,30.10,West,265,0.0,3.0,97,0.00,,,0.02,,2013-04-17 05:03:00,
2013-04-17 01:12:00,57.0,56.0,30.10,West,265,0.0,3.0,97,0.00,,,0.02,,2013-04-17 05:12:00,
2013-04-17 01:22:00,57.0,57.0,30.11,North,359,4.0,8.0,100,0.00,,,0.02,,2013-04-17 05:22:00,
2013-04-17 01:32:00,57.0,57.0,30.11,North,359,4.0,8.0,100,0.00,,,0.02,,2013-04-17 05:32:00,
2013-04-17 01:43:00,57.0,57.0,30.11,North,359,4.0,8.0,100,0.00,,,0.02,,2013-04-17 05:43:00,
2013-04-17 01:52:00,57.0,57.0,30.13,North,351,2.0,11.0,100,0.00,,,0.02,,2013-04-17 05:52:00,
2013-04-17 02:02:00,56.0,56.0,30.12,NW,316,1.0,8.0,100,0.00,,,0.02,,2013-04-17 06:02:00,
2013-04-17 02:12:00,56.0,56.0,30.12,NW,316,1.0,8.0,100,0.00,,,0.02,,2013-04-17 06:12:00,
2013-04-17 02:22:00,56.0,56.0,30.12,NW,316,1.0,8.0,100,0.00,,,0.02,,2013-04-17 06:22:00,
2013-04-17 02:32:00,54.0,54.0,30.14,NNW,343,3.0,7.0,100,0.04,,,0.06,,2013-04-17 06:32:00,
2013-04-17 02:42:00,54.0,54.0,30.14,NNW,343,3.0,7.0,100,0.04,,,0.06,,2013-04-17 06:42:00,
2013-04-17 02:52:00,54.0,54.0,30.14,NNW,343,3.0,7.0,100,0.04,,,0.06,,2013-04-17 06:52:00,
2013-04-17 03:02:00,54.0,54.0,30.14,NNW,343,3.0,7.0,100,0.04,,,0.06,,2013-04-17 07:02:00,
2013-04-17 03:12:00,54.0,54.0,30.14,NNW,343,3.0,7.0,100,0.04,,,0.06,,2013-04-17 07:12:00,
2013-04-17 03:52:00,51.0,51.0,30.15,WNW,289,0.0,2.0,100,0.00,,,0.07,,2013-04-17 07:52:00,
2013-04-17 04:02:00,50.0,50.0,30.15,SSE,166,2.0,3.0,100,0.00,,,0.07,,2013-04-17 08:02:00,
2013-04-17 04:12:00,50.0,50.0,30.15,SSE,166,2.0,3.0,100,0.00,,,0.07,,2013-04-17 08:12:00,
2013-04-17 04:22:00,50.0,50.0,30.15,SSE,166,2.0,3.0,100,0.00,,,0.07,,2013-04-17 08:22:00,
2013-04-17 04:30:00,50.0,50.0,30.15,SSE,166,0.0,0.0,100,0.00,,,0.07,,2013-04-17 08:30:00,
2013-04-17 04:32:00,50.0,50.0,30.15,SSE,166,2.0,3.0,100,0.00,,,0.07,,2013-04-17 08:32:00,
2013-04-17 04:42:00,50.0,50.0,30.15,SSE,166,2.0,3.0,100,0.00,,,0.07,,2013-04-17 08:42:00,
2013-04-17 04:52:00,50.0,50.0,30.15,SSE,166,0.0,0.0,100,0.00,,,0.07,,2013-04-17 08:52:00,
2013-04-17 05:02:00,50.0,50.0,30.15,SSE,166,0.0,0.0,100,0.00,,,0.07,,2013-04-17 09:02:00,
2013-04-17 05:12:00,50.0,50.0,30.15,SSE,166,0.0,0.0,100,0.00,,,0.07,,2013-04-17 09:12:00,
2013-04-17 05:22:00,50.0,50.0,30.15,SSE,166,0.0,0.0,100,0.00,,,0.07,,2013-04-17 09:22:00,
2013-04-17 05:53:00,48.0,48.0,30.14,South,169,0.0,4.0,100,0.00,,,0.07,,2013-04-17 09:53:00,
2013-04-17 06:03:00,48.0,48.0,30.16,South,171,2.0,3.0,100,0.00,,,0.07,,2013-04-17 10:03:00,
2013-04-17 06:12:00,48.0,48.0,30.16,South,171,2.0,3.0,100,0.00,,,0.07,,2013-04-17 10:12:00,
2013-04-17 06:23:00,48.0,48.0,30.15,North,0,3.0,4.0,100,0.00,,,0.07,,2013-04-17 10:23:00,
2013-04-17 06:32:00,48.0,47.0,30.16,North,353,2.0,6.0,98,0.00,,,0.07,,2013-04-17 10:32:00,
2013-04-17 06:42:00,48.0,47.0,30.16,North,353,2.0,6.0,98,0.00,,,0.07,,2013-04-17 10:42:00,
2013-04-17 06:53:00,48.0,46.0,30.17,North,357,1.0,4.0,94,0.00,,,0.07,,2013-04-17 10:53:00,
2013-04-17 07:02:00,48.0,45.0,30.18,North,350,1.0,6.0,91,0.00,,,0.07,,2013-04-17 11:02:00,
2013-04-17 07:12:00,48.0,45.0,30.18,North,350,1.0,6.0,91,0.00,,,0.07,,2013-04-17 11:12:00,
2013-04-17 07:22:00,48.0,44.0,30.19,North,0,3.0,11.0,85,0.00,,,0.07,,2013-04-17 11:22:00,
2013-04-17 07:32:00,48.0,44.0,30.19,North,0,3.0,11.0,85,0.00,,,0.07,,2013-04-17 11:32:00,
2013-04-17 07:42:00,48.0,44.0,30.19,North,0,3.0,11.0,85,0.00,,,0.07,,2013-04-17 11:42:00,
2013-04-17 07:52:00,48.0,44.0,30.19,North,0,3.0,11.0,85,0.00,,,0.07,,2013-04-17 11:52:00,
2013-04-17 08:02:00,51.0,43.0,30.23,NNW,341,7.0,11.0,73,0.00,,,0.07,,2013-04-17 12:02:00,
2013-04-17 08:12:00,51.0,43.0,30.23,NNW,341,7.0,11.0,73,0.00,,,0.07,,2013-04-17 12:12:00,
2013-04-17 08:22:00,52.0,42.0,30.23,NNW,345,5.0,11.0,68,0.00,,,0.07,,2013-04-17 12:22:00,
2013-04-17 08:32:00,52.0,42.0,30.23,NNW,345,5.0,11.0,68,0.00,,,0.07,,2013-04-17 12:32:00,
2013-04-17 08:42:00,52.0,42.0,30.23,NNW,345,5.0,11.0,68,0.00,,,0.07,,2013-04-17 12:42:00,
2013-04-17 08:52:00,53.0,39.0,30.24,North,351,7.0,14.0,60,0.00,,,0.07,,2013-04-17 12:52:00,
2013-04-17 09:02:00,53.0,39.0,30.24,North,354,1.0,11.0,59,0.00,,,0.07,,2013-04-17 13:02:00,
2013-04-17 09:12:00,53.0,39.0,30.24,North,354,1.0,11.0,59,0.00,,,0.07,,2013-04-17 13:12:00,
2013-04-17 09:22:00,53.0,39.0,30.24,North,354,1.0,11.0,59,0.00,,,0.07,,2013-04-17 13:22:00,
2013-04-17 09:32:00,53.0,39.0,30.24,North,354,1.0,11.0,59,0.00,,,0.07,,2013-04-17 13:32:00,
2013-04-17 09:42:00,53.0,39.0,30.24,North,354,1.0,11.0,59,0.00,,,0.07,,2013-04-17 13:42:00,
2013-04-17 09:52:00,55.0,40.0,30.24,North,351,2.0,10.0,56,0.00,,,0.07,,2013-04-17 13:52:00,
2013-04-17 10:02:00,55.0,40.0,30.24,North,351,2.0,10.0,56,0.00,,,0.07,,2013-04-17 14:02:00,
2013-04-17 10:12:00,55.0,40.0,30.24,North,351,2.0,10.0,56,0.00,,,0.07,,2013-04-17 14:12:00,
2013-04-17 10:22:00,56.0,39.0,30.25,NNW,347,6.0,12.0,53,0.00,,,0.07,,2013-04-17 14:22:00,
2013-04-17 10:32:00,56.0,39.0,30.25,NNW,347,6.0,12.0,53,0.00,,,0.07,,2013-04-17 14:32:00,
2013-04-17 10:43:00,56.0,39.0,30.25,NNW,347,6.0,12.0,53,0.00,,,0.07,,2013-04-17 14:43:00,
2013-04-17 10:52:00,56.0,39.0,30.25,NNW,347,6.0,12.0,53,0.00,,,0.07,,2013-04-17 14:52:00,
2013-04-17 11:02:00,57.0,38.0,30.25,SSE,161,1.0,10.0,49,0.00,,,0.07,,2013-04-17 15:02:00,
2013-04-17 11:12:00,57.0,38.0,30.25,SSE,161,1.0,10.0,49,0.00,,,0.07,,2013-04-17 15:12:00,
2013-04-17 11:22:00,57.0,38.0,30.25,SSE,161,1.0,10.0,49,0.00,,,0.07,,2013-04-17 15:22:00,
2013-04-17 11:33:00,59.0,38.0,30.24,North,0,2.0,13.0,46,0.00,,,0.07,,2013-04-17 15:33:00,
2013-04-17 11:43:00,59.0,38.0,30.24,North,0,2.0,13.0,46,0.00,,,0.07,,2013-04-17 15:43:00,
2013-04-17 11:53:00,59.0,38.0,30.24,North,0,2.0,13.0,46,0.00,,,0.07,,2013-04-17 15:53:00,
2013-04-17 12:03:00,59.0,38.0,30.24,North,0,2.0,13.0,46,0.00,,,0.07,,2013-04-17 16:03:00,
2013-04-17 12:12:00,59.0,38.0,30.24,North,0,2.0,13.0,46,0.00,,,0.07,,2013-04-17 16:12:00,
2013-04-17 12:32:00,60.0,38.0,30.22,North,0,1.0,8.0,44,0.00,,,0.07,,2013-04-17 16:32:00,
2013-04-17 12:42:00,60.0,38.0,30.22,North,0,1.0,8.0,44,0.00,,,0.07,,2013-04-17 16:42:00,
2013-04-17 12:52:00,60.0,38.0,30.22,North,0,1.0,8.0,44,0.00,,,0.07,,2013-04-17 16:52:00,
2013-04-17 13:00:00,60.0,38.0,30.21,North,5,2.0,14.0,44,0.00,,,0.07,,2013-04-17 17:00:00,
2013-04-17 13:02:00,60.0,38.0,30.22,North,351,7.0,11.0,44,0.00,,,0.07,,2013-04-17 17:02:00,
2013-04-17 13:12:00,60.0,38.0,30.22,North,351,7.0,11.0,44,0.00,,,0.07,,2013-04-17 17:12:00,
2013-04-17 13:22:00,60.0,38.0,30.21,North,5,2.0,14.0,44,0.00,,,0.07,,2013-04-17 17:22:00,
2013-04-17 13:33:00,60.0,38.0,30.21,North,5,2.0,14.0,44,0.00,,,0.07,,2013-04-17 17:33:00,
2013-04-17 13:42:00,60.0,38.0,30.21,North,5,2.0,14.0,44,0.00,,,0.07,,2013-04-17 17:42:00,
2013-04-17 13:52:00,60.0,38.0,30.21,North,5,2.0,14.0,44,0.00,,,0.07,,2013-04-17 17:52:00,
2013-04-17 14:22:00,61.0,35.0,30.22,North,359,2.0,13.0,38,0.00,,,0.07,,2013-04-17 18:22:00,
2013-04-17 14:33:00,61.0,35.0,30.22,North,359,2.0,13.0,38,0.00,,,0.07,,2013-04-17 18:33:00,
2013-04-17 14:42:00,61.0,35.0,30.22,North,359,2.0,13.0,38,0.00,,,0.07,,2013-04-17 18:42:00,
2013-04-17 14:52:00,61.0,35.0,30.22,North,359,2.0,13.0,38,0.00,,,0.07,,2013-04-17 18:52:00,
2013-04-17 15:02:00,62.0,35.0,30.21,North,7,6.0,11.0,36,0.00,,,0.07,,2013-04-17 19:02:00,
2013-04-17 15:12:00,62.0,35.0,30.21,North,7,6.0,11.0,36,0.00,,,0.07,,2013-04-17 19:12:00,
2013-04-17 15:22:00,62.0,35.0,30.21,North,351,2.0,11.0,36,0.00,,,0.07,,2013-04-17 19:22:00,
2013-04-17 15:32:00,62.0,35.0,30.21,North,351,2.0,11.0,36,0.00,,,0.07,,2013-04-17 19:32:00,
2013-04-17 15:42:00,62.0,34.0,30.20,East,93,4.0,10.0,35,0.00,,,0.06,,2013-04-17 19:42:00,
2013-04-17 15:52:00,62.0,34.0,30.20,East,93,4.0,10.0,35,0.00,,,0.06,,2013-04-17 19:52:00,
2013-04-17 16:02:00,62.0,34.0,30.20,East,93,4.0,10.0,35,0.00,,,0.06,,2013-04-17 20:02:00,
2013-04-17 16:12:00,62.0,34.0,30.20,East,93,4.0,10.0,35,0.00,,,0.06,,2013-04-17 20:12:00,
2013-04-17 16:22:00,63.0,36.0,30.20,NE,38,2.0,13.0,36,0.00,,,0.06,,2013-04-17 20:22:00,
2013-04-17 16:32:00,63.0,36.0,30.20,NE,38,2.0,13.0,36,0.00,,,0.06,,2013-04-17 20:32:00,
2013-04-17 16:42:00,63.0,36.0,30.20,NE,38,2.0,13.0,36,0.00,,,0.06,,2013-04-17 20:42:00,
2013-04-17 16:52:00,63.0,36.0,30.20,NE,38,2.0,13.0,36,0.00,,,0.06,,2013-04-17 20:52:00,
2013-04-17 17:03:00,63.0,34.0,30.20,NNW,341,4.0,14.0,34,0.00,,,0.06,,2013-04-17 21:03:00,
2013-04-17 17:12:00,63.0,34.0,30.20,NNW,341,4.0,14.0,34,0.00,,,0.06,,2013-04-17 21:12:00,
2013-04-17 17:22:00,63.0,36.0,30.21,NE,46,3.0,12.0,36,0.00,,,0.06,,2013-04-17 21:22:00,
2013-04-17 17:33:00,63.0,36.0,30.22,ENE,76,2.0,11.0,36,0.00,,,0.06,,2013-04-17 21:33:00,
2013-04-17 17:42:00,63.0,36.0,30.22,ENE,76,2.0,11.0,36,0.00,,,0.06,,2013-04-17 21:42:00,
2013-04-17 17:53:00,63.0,36.0,30.22,ENE,76,2.0,11.0,36,0.00,,,0.06,,2013-04-17 21:53:00,
2013-04-17 18:02:00,63.0,35.0,30.22,North,350,1.0,11.0,35,0.00,,,0.06,,2013-04-17 22:02:00,
2013-04-17 18:12:00,63.0,35.0,30.22,North,354,4.0,10.0,35,0.00,,,0.06,,2013-04-17 22:12:00,
2013-04-17 18:22:00,63.0,35.0,30.22,North,354,4.0,10.0,35,0.00,,,0.06,,2013-04-17 22:22:00,
2013-04-17 18:33:00,63.0,36.0,30.23,NE,49,2.0,11.0,36,0.00,,,0.06,,2013-04-17 22:33:00,
2013-04-17 18:42:00,63.0,36.0,30.23,NE,49,2.0,11.0,36,0.00,,,0.06,,2013-04-17 22:42:00,
2013-04-17 18:53:00,63.0,36.0,30.23,NE,49,2.0,11.0,36,0.00,,,0.06,,2013-04-17 22:53:00,
2013-04-17 19:02:00,62.0,35.0,30.24,North,0,3.0,12.0,36,0.00,,,0.06,,2013-04-17 23:02:00,
2013-04-17 19:12:00,62.0,35.0,30.24,North,351,4.0,9.0,37,0.00,,,0.06,,2013-04-17 23:12:00,
2013-04-17 19:22:00,62.0,35.0,30.24,North,351,4.0,9.0,37,0.00,,,0.06,,2013-04-17 23:22:00,
2013-04-17 19:32:00,61.0,35.0,30.24,North,350,1.0,8.0,37,0.00,,,0.06,,2013-04-17 23:32:00,
2013-04-17 19:42:00,61.0,35.0,30.24,North,350,1.0,8.0,37,0.00,,,0.06,,2013-04-17 23:42:00,
2013-04-17 19:52:00,61.0,35.0,30.24,North,350,1.0,8.0,37,0.00,,,0.06,,2013-04-17 23:52:00,
2013-04-17 20:02:00,60.0,35.0,30.24,North,358,0.0,5.0,39,0.00,,,0.06,,2013-04-18 00:02:00,
2013-04-17 20:12:00,59.0,35.0,30.25,North,358,0.0,5.0,40,0.00,,,0.06,,2013-04-18 00:12:00,
2013-04-17 20:22:00,59.0,35.0,30.25,North,358,0.0,5.0,40,0.00,,,0.06,,2013-04-18 00:22:00,
2013-04-17 20:32:00,59.0,35.0,30.25,North,358,0.0,3.0,41,0.00,,,0.06,,2013-04-18 00:32:00,
2013-04-17 20:42:00,59.0,35.0,30.25,North,358,0.0,3.0,41,0.00,,,0.06,,2013-04-18 00:42:00,
2013-04-17 20:52:00,59.0,35.0,30.25,North,358,0.0,3.0,41,0.00,,,0.06,,2013-04-18 00:52:00,
2013-04-17 21:02:00,56.0,37.0,30.26,North,358,0.0,1.0,48,0.00,,,0.06,,2013-04-18 01:02:00,
2013-04-17 21:12:00,55.0,38.0,30.27,North,358,0.0,0.0,52,0.00,,,0.06,,2013-04-18 01:12:00,
2013-04-17 21:22:00,55.0,38.0,30.27,North,358,0.0,0.0,52,0.00,,,0.06,,2013-04-18 01:22:00,
2013-04-17 21:32:00,53.0,37.0,30.27,North,358,0.0,0.0,55,0.00,,,0.06,,2013-04-18 01:32:00,
2013-04-17 21:42:00,53.0,37.0,30.27,North,358,0.0,0.0,55,0.00,,,0.06,,2013-04-18 01:42:00,
2013-04-17 21:52:00,53.0,37.0,30.27,North,358,0.0,0.0,55,0.00,,,0.06,,2013-04-18 01:52:00,
2013-04-17 22:02:00,51.0,37.0,30.27,North,358,0.0,0.0,59,0.00,,,0.06,,2013-04-18 02:02:00,
2013-04-17 22:12:00,51.0,37.0,30.27,North,358,0.0,0.0,59,0.00,,,0.06,,2013-04-18 02:12:00,
2013-04-17 22:22:00,51.0,37.0,30.27,North,358,0.0,0.0,59,0.00,,,0.06,,2013-04-18 02:22:00,
2013-04-17 22:30:00,49.0,37.0,30.27,North,358,0.0,0.0,64,0.00,,,0.06,,2013-04-18 02:30:00,
2013-04-17 22:32:00,50.0,38.0,30.27,North,358,0.0,0.0,62,0.00,,,0.06,,2013-04-18 02:32:00,
2013-04-17 22:42:00,50.0,38.0,30.27,North,358,0.0,0.0,62,0.00,,,0.06,,2013-04-18 02:42:00,
2013-04-17 22:52:00,50.0,38.0,30.27,North,358,0.0,0.0,62,0.00,,,0.06,,2013-04-18 02:52:00,
2013-04-17 23:02:00,49.0,37.0,30.27,North,358,0.0,0.0,64,0.00,,,0.06,,2013-04-18 03:02:00,
2013-04-17 23:12:00,49.0,37.0,30.27,North,358,0.0,0.0,64,0.00,,,0.06,,2013-04-18 03:12:00,
2013-04-17 23:22:00,49.0,37.0,30.27,North,358,0.0,0.0,64,0.00,,,0.06,,2013-04-18 03:22:00,
2013-04-17 23:43:00,46.0,36.0,30.29,North,358,0.0,0.0,69,0.00,,,0.05,,2013-04-18 03:43:00,
2013-04-17 23:53:00,46.0,36.0,30.29,North,358,0.0,0.0,69,0.00,,,0.05,,2013-04-18 03:53:00,